Agana Heights, Guam
Current Conditions -  °F | °C
As of 9:54 PM on Thursday 29 Jan 2015 (Local Time) from PGUM Reporting Station
Clear Clear  
Wind Chill: 25°   Ceiling: Unl
Heat Index: 26°   Visibility: 10mi
Dew Point: 22°   Wind: 6mph
Humidity: 84%   Direction: 50°NE
Pressure: 29.9"   Gusts: NA
Location:  13.47°N, 144.74°E
Report Text: PGUM 291154Z 05005KT 10SM CLR 25/22 A2990 RMK AO2 SLP117 70017 T02500222 10294 20250 51014
Loading
Personal Weather Stations






























Interactive Weather Map New forecast layout! Learn more

10-Day Weather Forecast

Advertisements
Track Severe Weather on mobile